This is the latest recevied weather packets stored in our database for station/object KC8UZG. If no packets are shown the sender has not sent any weather packets the latest 10 day(s).
| Time | Temp. | Humidity | Pressure | Rain* | Wind** | Luminosity | Snow |
|---|---|---|---|---|---|---|---|
| 1778155532 | 6.67° C | 83% | 1014.3 hPa | 0 mm | - | 23 W/m² | - |
| 1778154937 | 5.56° C | 86% | 1014.3 hPa | 0 mm | - | 20 W/m² | - |
| 1778154316 | 5° C | 90% | 1014.3 hPa | 0 mm | - | 17 W/m² | - |
| 1778153721 | 3.89° C | 96% | 1014.3 hPa | 0 mm | - | 12 W/m² | - |
| 1778153128 | 3.89° C | 98% | 1014.1 hPa | 0 mm | - | 9 W/m² | - |
| 1778152534 | 3.33° C | 98% | 1013.9 hPa | 0 mm | - | 7 W/m² | - |
| 1778151939 | 2.78° C | 98% | 1013.9 hPa | 0 mm | - | 4 W/m² | - |
| 1778151319 | 2.78° C | 97% | 1013.9 hPa | 0 mm | - | 0 W/m² | - |
| 1778150724 | 2.78° C | 96% | 1013.8 hPa | 0 mm | - | 0 W/m² | - |
| 1778150132 | 3.33° C | 96% | 1013.6 hPa | 0 mm | - | 0 W/m² | - |
| 1778149537 | 3.33° C | 94% | 1013.6 hPa | 0 mm | - | 0 W/m² | - |
| 1778148915 | 3.89° C | 93% | 1013.6 hPa | 0 mm | - | 0 W/m² | - |
| 1778148323 | 3.89° C | 93% | 1013.6 hPa | 0 mm | - | 0 W/m² | - |
| 1778147728 | 3.89° C | 95% | 1013.6 hPa | 0 mm | - | 0 W/m² | - |
| 1778147134 | 3.33° C | 97% | 1013.6 hPa | 0 mm | - | 0 W/m² | - |
| 1778146540 | 3.33° C | 98% | 1013.6 hPa | 0 mm | - | 0 W/m² | - |
| 1778145919 | 3.33° C | 97% | 1013.6 hPa | 0 mm | - | 0 W/m² | - |
| 1778145325 | 3.89° C | 97% | 1013.6 hPa | 0 mm | - | 0 W/m² | - |
| 1778144733 | 3.89° C | 98% | 1013.5 hPa | 0 mm | - | 0 W/m² | - |
| 1778144137 | 3.89° C | 98% | 1013.6 hPa | 0 mm | - | 0 W/m² | - |
| 1778143516 | 3.89° C | 99% | 1013.5 hPa | 0 mm | - | 0 W/m² | - |
| 1778142922 | 3.89° C | 99% | 1013.2 hPa | 0 mm | - | 0 W/m² | - |
| 1778142328 | 3.89° C | 99% | 1013.2 hPa | 0 mm | - | 0 W/m² | - |
| 1778141734 | 3.89° C | 99% | 1013.3 hPa | 0 mm | - | 0 W/m² | - |
| 1778141140 | 3.89° C | 99% | 1013.4 hPa | 0 mm | - | 0 W/m² | - |
* Rain latest hour (hover to see other rain measurements)
** Current wind speed in m/s (hover to see current wind gust speed)